Time;durP1;ratioP1;P1;durP2;ratioP2;P2;SDS_P1;SDS_P2;PMS_P1;PMS_P2;Temp;Humidity;BMP_temperature;BMP_pressure;BME280_temperature;BME280_humidity;BME280_pressure;Samples;Min_cycle;Max_cycle;Signal;HPM_P1;HPM_P2
2021/12/13 00:01:58;;;;;;;117.27;74.87;;;;;;;;;;5034921;28;20207;-83
2021/12/13 00:04:27;;;;;;;138.13;77.47;;;;;;;;;;5033743;28;20918;-84
2021/12/13 00:06:57;;;;;;;142.27;78.30;;;;;;;;;;5033100;28;20418;-83
2021/12/13 00:09:25;;;;;;;196.82;87.25;;;;;;;;;;5033052;28;20496;-83
2021/12/13 00:11:54;;;;;;;177.20;81.90;;;;;;;;;;5034518;28;20196;-84
2021/12/13 00:14:22;;;;;;;169.43;79.00;;;;;;;;;;5032805;28;21043;-84
2021/12/13 00:16:52;;;;;;;140.67;78.60;;;;;;;;;;5032674;28;20951;-83
2021/12/13 00:19:22;;;;;;;113.07;71.63;;;;;;;;;;5032727;28;20515;-84
2021/12/13 00:21:52;;;;;;;137.57;74.97;;;;;;;;;;5032814;28;20451;-83
2021/12/13 00:24:25;;;;;;;143.67;78.77;;;;;;;;;;5032884;28;20819;-84
2021/12/13 00:26:53;;;;;;;123.27;73.63;;;;;;;;;;5051315;28;20906;-83
2021/12/13 00:29:22;;;;;;;112.27;72.40;;;;;;;;;;5052617;28;20509;-84
2021/12/13 00:31:52;;;;;;;110.00;67.70;;;;;;;;;;5053016;28;20910;-83
2021/12/13 00:34:25;;;;;;;116.03;74.27;;;;;;;;;;5052574;28;20442;-84
2021/12/13 00:36:54;;;;;;;99.50;66.17;;;;;;;;;;5059261;28;20444;-84
2021/12/13 00:39:25;;;;;;;124.57;73.93;;;;;;;;;;5060255;28;20432;-84
2021/12/13 00:41:53;;;;;;;108.53;70.63;;;;;;;;;;5060716;28;20431;-84
2021/12/13 00:44:22;;;;;;;115.90;72.07;;;;;;;;;;5055721;28;20500;-84
2021/12/13 00:46:52;;;;;;;125.63;73.90;;;;;;;;;;5034713;28;20436;-84
2021/12/13 00:49:20;;;;;;;126.33;80.20;;;;;;;;;;5052367;28;20442;-84
2021/12/13 00:51:49;;;;;;;119.23;76.10;;;;;;;;;;5052260;28;20439;-84
2021/12/13 00:54:19;;;;;;;105.73;70.53;;;;;;;;;;5052918;28;20423;-84
2021/12/13 00:56:56;;;;;;;119.93;74.63;;;;;;;;;;5052306;28;20409;-84
2021/12/13 00:59:26;;;;;;;128.00;76.37;;;;;;;;;;5053010;28;20426;-84
2021/12/13 01:01:57;;;;;;;130.23;76.27;;;;;;;;;;5058083;28;20427;-84
2021/12/13 01:04:33;;;;;;;143.73;83.73;;;;;;;;;;5056155;28;20432;-84
2021/12/13 01:07:31;;;;;;;83.03;63.90;;;;;;;;;;5052641;28;20486;-84
2021/12/13 01:10:28;;;;;;;80.83;61.73;;;;;;;;;;4990975;28;20431;-84
2021/12/13 01:12:58;;;;;;;119.03;72.20;;;;;;;;;;4990833;28;20431;-84
2021/12/13 01:15:32;;;;;;;157.23;75.47;;;;;;;;;;4990449;28;20429;-84
2021/12/13 01:18:16;;;;;;;121.23;70.33;;;;;;;;;;4990399;28;20562;-84
2021/12/13 01:20:59;;;;;;;148.03;73.17;;;;;;;;;;4990645;28;20451;-83
2021/12/13 01:23:40;;;;;;;96.13;65.07;;;;;;;;;;4990549;28;20513;-84
2021/12/13 01:26:27;;;;;;;103.10;64.60;;;;;;;;;;4991531;28;20422;-84
2021/12/13 01:28:58;;;;;;;112.37;66.20;;;;;;;;;;4990708;28;20517;-84
2021/12/13 01:31:27;;;;;;;106.50;66.67;;;;;;;;;;4990557;28;20466;-84
2021/12/13 01:33:55;;;;;;;97.30;67.10;;;;;;;;;;4990941;28;20884;-84
2021/12/13 01:36:28;;;;;;;121.83;66.53;;;;;;;;;;4990581;28;20483;-85
2021/12/13 01:38:56;;;;;;;110.20;70.30;;;;;;;;;;4990225;28;20487;-83
2021/12/13 01:41:24;;;;;;;130.67;75.10;;;;;;;;;;4991302;28;20437;-84
2021/12/13 01:43:54;;;;;;;110.97;69.87;;;;;;;;;;5018221;28;20515;-84
2021/12/13 01:46:23;;;;;;;103.20;64.83;;;;;;;;;;5055265;28;20886;-84
2021/12/13 01:48:52;;;;;;;99.03;64.50;;;;;;;;;;5055423;28;20861;-84
2021/12/13 01:51:22;;;;;;;86.30;60.77;;;;;;;;;;5055266;28;20471;-84
2021/12/13 01:53:52;;;;;;;62.27;52.53;;;;;;;;;;5054797;28;20460;-83
2021/12/13 01:56:37;;;;;;;87.63;60.30;;;;;;;;;;5055525;28;20447;-84
2021/12/13 01:59:16;;;;;;;95.93;62.30;;;;;;;;;;5054748;28;20463;-84
2021/12/13 02:01:45;;;;;;;95.70;61.87;;;;;;;;;;5054929;28;20416;-84
2021/12/13 02:04:15;;;;;;;95.13;61.50;;;;;;;;;;5055078;28;20439;-84
2021/12/13 02:06:44;;;;;;;94.33;59.57;;;;;;;;;;5054744;28;20417;-84
2021/12/13 02:09:13;;;;;;;109.83;69.03;;;;;;;;;;5054909;28;20858;-84
2021/12/13 02:11:42;;;;;;;76.47;58.17;;;;;;;;;;5054946;28;20428;-84
2021/12/13 02:14:15;;;;;;;125.85;67.88;;;;;;;;;;5054956;28;20450;-84
2021/12/13 02:17:00;;;;;;;105.17;62.77;;;;;;;;;;5054732;28;20211;-84
2021/12/13 02:19:32;;;;;;;117.37;65.37;;;;;;;;;;5054941;28;20473;-84
2021/12/13 02:22:06;;;;;;;85.60;61.17;;;;;;;;;;5054662;28;20431;-84
2021/12/13 02:24:36;;;;;;;118.23;63.30;;;;;;;;;;5055668;28;20416;-84
2021/12/13 02:27:06;;;;;;;120.97;66.60;;;;;;;;;;5034752;28;20436;-84
2021/12/13 02:29:37;;;;;;;96.00;61.13;;;;;;;;;;5034736;28;20449;-85
2021/12/13 02:32:05;;;;;;;124.87;65.97;;;;;;;;;;5034632;28;20452;-84
2021/12/13 02:34:34;;;;;;;114.37;65.03;;;;;;;;;;5034233;28;20436;-84
2021/12/13 02:37:01;;;;;;;142.00;65.23;;;;;;;;;;5034415;28;20433;-84
2021/12/13 02:39:31;;;;;;;115.90;66.43;;;;;;;;;;5034487;28;20452;-84
2021/12/13 02:42:01;;;;;;;116.77;65.47;;;;;;;;;;5034405;28;21095;-84
2021/12/13 02:44:36;;;;;;;175.63;71.13;;;;;;;;;;5034207;28;21125;-84
2021/12/13 02:47:05;;;;;;;145.63;70.90;;;;;;;;;;5034140;28;20416;-84
2021/12/13 02:49:33;;;;;;;177.77;73.37;;;;;;;;;;5034022;28;20438;-84
2021/12/13 02:52:03;;;;;;;137.53;72.00;;;;;;;;;;5034100;28;20894;-84
2021/12/13 02:54:31;;;;;;;177.20;81.90;;;;;;;;;;5034067;28;20459;-83
2021/12/13 02:57:00;;;;;;;145.20;77.53;;;;;;;;;;5033856;28;20406;-83
2021/12/13 02:59:32;;;;;;;145.33;78.27;;;;;;;;;;5034092;28;20480;-84
2021/12/13 03:02:01;;;;;;;141.27;78.17;;;;;;;;;;5033282;28;20482;-84
2021/12/13 03:04:29;;;;;;;159.23;80.53;;;;;;;;;;5034044;28;20872;-85
2021/12/13 03:06:58;;;;;;;136.40;76.00;;;;;;;;;;5033748;28;20445;-84
2021/12/13 03:09:27;;;;;;;103.80;70.90;;;;;;;;;;5034131;28;20401;-84
2021/12/13 03:11:57;;;;;;;122.17;68.30;;;;;;;;;;5033803;28;20460;-84
2021/12/13 03:14:27;;;;;;;116.93;69.00;;;;;;;;;;5036485;28;20454;-84
2021/12/13 03:16:59;;;;;;;121.97;70.63;;;;;;;;;;5039084;28;20436;-83
2021/12/13 03:19:36;;;;;;;108.33;68.50;;;;;;;;;;5039096;28;20473;-84
2021/12/13 03:22:32;;;;;;;96.13;62.90;;;;;;;;;;5040061;28;20442;-83
2021/12/13 03:25:11;;;;;;;132.70;70.80;;;;;;;;;;5042335;28;20417;-84
2021/12/13 03:27:53;;;;;;;131.43;67.30;;;;;;;;;;5059199;28;20473;-84
2021/12/13 03:30:23;;;;;;;106.57;64.83;;;;;;;;;;5060000;28;20421;-83
2021/12/13 03:33:00;;;;;;;128.30;71.03;;;;;;;;;;5059647;28;20448;-84
2021/12/13 03:35:31;;;;;;;117.50;67.73;;;;;;;;;;5059313;28;20452;-84
2021/12/13 03:38:01;;;;;;;100.20;64.00;;;;;;;;;;5058919;28;20486;-82
2021/12/13 03:40:31;;;;;;;149.37;70.80;;;;;;;;;;5059260;28;20463;-82
2021/12/13 03:43:00;;;;;;;129.57;71.23;;;;;;;;;;5058627;28;20488;-84
2021/12/13 03:45:30;;;;;;;117.13;66.13;;;;;;;;;;5058627;28;20496;-84
2021/12/13 03:48:02;;;;;;;135.60;75.67;;;;;;;;;;5058055;28;20416;-84
2021/12/13 03:50:32;;;;;;;128.83;70.87;;;;;;;;;;5035822;28;20910;-83
2021/12/13 03:53:02;;;;;;;117.13;68.40;;;;;;;;;;5053851;28;20465;-82
2021/12/13 03:55:31;;;;;;;146.27;76.37;;;;;;;;;;5053529;28;20419;-83
2021/12/13 03:58:00;;;;;;;84.73;61.87;;;;;;;;;;5053542;28;20837;-84
2021/12/13 04:00:30;;;;;;;127.90;69.40;;;;;;;;;;5054381;28;20428;-84
2021/12/13 04:03:00;;;;;;;117.83;67.60;;;;;;;;;;5054754;28;20775;-83
2021/12/13 04:05:29;;;;;;;147.83;73.20;;;;;;;;;;5053327;28;20469;-83
2021/12/13 04:07:58;;;;;;;126.80;67.50;;;;;;;;;;5054192;28;20469;-83
2021/12/13 04:10:26;;;;;;;123.30;70.70;;;;;;;;;;5052819;28;20921;-84
2021/12/13 04:12:55;;;;;;;149.87;74.40;;;;;;;;;;5052513;28;20700;-84
2021/12/13 04:15:30;;;;;;;149.27;75.83;;;;;;;;;;5051863;28;20824;-84
2021/12/13 04:18:02;;;;;;;164.63;73.27;;;;;;;;;;5052452;28;20456;-85
2021/12/13 04:20:31;;;;;;;116.73;69.60;;;;;;;;;;5051965;28;20518;-84
2021/12/13 04:23:00;;;;;;;113.80;70.80;;;;;;;;;;5052495;28;20428;-84
2021/12/13 04:25:29;;;;;;;127.83;68.37;;;;;;;;;;5052329;28;20420;-84
2021/12/13 04:27:59;;;;;;;125.03;70.47;;;;;;;;;;5052237;28;20889;-84
2021/12/13 04:30:29;;;;;;;188.77;77.83;;;;;;;;;;5051998;28;20526;-84
2021/12/13 04:33:05;;;;;;;117.07;71.60;;;;;;;;;;5051993;28;20771;-84
2021/12/13 04:35:35;;;;;;;126.87;68.03;;;;;;;;;;5052015;28;20438;-84
2021/12/13 04:38:05;;;;;;;128.30;68.03;;;;;;;;;;5052413;28;20538;-84
2021/12/13 04:40:34;;;;;;;102.87;65.20;;;;;;;;;;5052123;28;20425;-84
2021/12/13 04:43:03;;;;;;;121.90;68.00;;;;;;;;;;5052122;28;20457;-84
2021/12/13 04:45:30;;;;;;;108.73;65.10;;;;;;;;;;5052048;28;20461;-84
2021/12/13 04:48:03;;;;;;;95.67;62.73;;;;;;;;;;5052116;28;20469;-84
2021/12/13 04:50:32;;;;;;;119.77;72.93;;;;;;;;;;5052013;28;20437;-84
2021/12/13 04:53:01;;;;;;;138.07;75.53;;;;;;;;;;5051802;28;20514;-84
2021/12/13 04:55:32;;;;;;;123.63;70.23;;;;;;;;;;5052106;28;20402;-84
2021/12/13 04:58:00;;;;;;;96.93;62.47;;;;;;;;;;5051834;28;20446;-84
2021/12/13 05:00:28;;;;;;;93.37;62.30;;;;;;;;;;5051901;28;20449;-84
2021/12/13 05:02:58;;;;;;;123.77;71.67;;;;;;;;;;5051818;28;20473;-84
2021/12/13 05:05:26;;;;;;;102.90;65.57;;;;;;;;;;5051875;28;20421;-84
2021/12/13 05:07:53;;;;;;;97.60;65.50;;;;;;;;;;5051563;28;20461;-84
2021/12/13 05:10:25;;;;;;;64.80;58.37;;;;;;;;;;5051902;28;20435;-84
2021/12/13 05:12:59;;;;;;;99.57;64.50;;;;;;;;;;5051865;28;20516;-85
2021/12/13 05:15:27;;;;;;;93.23;61.50;;;;;;;;;;5051456;28;20421;-84
2021/12/13 05:17:55;;;;;;;144.57;75.55;;;;;;;;;;5055146;28;20464;-84
2021/12/13 05:20:24;;;;;;;102.97;65.80;;;;;;;;;;5055656;28;20598;-84
2021/12/13 05:22:55;;;;;;;93.77;70.10;;;;;;;;;;5055629;28;20819;-83
2021/12/13 05:25:29;;;;;;;76.40;68.20;;;;;;;;;;5055440;28;20458;-84
2021/12/13 05:28:01;;;;;;;108.57;70.13;;;;;;;;;;5055085;28;20413;-83
2021/12/13 05:30:29;;;;;;;116.63;72.90;;;;;;;;;;5055192;28;20452;-84
2021/12/13 05:32:58;;;;;;;112.63;71.20;;;;;;;;;;5037390;28;20470;-83
2021/12/13 05:35:28;;;;;;;104.13;68.00;;;;;;;;;;5055181;28;20419;-84
2021/12/13 05:37:57;;;;;;;109.07;71.60;;;;;;;;;;5055028;28;20785;-84
2021/12/13 05:40:27;;;;;;;101.83;70.03;;;;;;;;;;5055139;28;21095;-83
2021/12/13 05:42:56;;;;;;;80.97;63.90;;;;;;;;;;5055050;28;20416;-83
2021/12/13 05:45:35;;;;;;;98.00;68.60;;;;;;;;;;5054880;28;20525;-84
2021/12/13 05:48:05;;;;;;;114.07;71.80;;;;;;;;;;5054831;28;20416;-84
2021/12/13 05:50:34;;;;;;;118.53;71.87;;;;;;;;;;5054822;28;20424;-83
2021/12/13 05:53:05;;;;;;;118.57;71.30;;;;;;;;;;5054550;28;20501;-84
2021/12/13 05:55:45;;;;;;;135.33;72.27;;;;;;;;;;5054687;28;20406;-83
2021/12/13 05:58:12;;;;;;;124.73;74.23;;;;;;;;;;5054444;28;20430;-83
2021/12/13 06:00:41;;;;;;;98.60;70.27;;;;;;;;;;5054961;28;20446;-83
2021/12/13 06:03:11;;;;;;;102.30;70.27;;;;;;;;;;5054499;28;20402;-84
2021/12/13 06:05:40;;;;;;;114.87;71.50;;;;;;;;;;5054660;28;20445;-83
2021/12/13 06:08:10;;;;;;;112.80;70.43;;;;;;;;;;5054345;28;20416;-84
2021/12/13 06:10:41;;;;;;;106.33;68.97;;;;;;;;;;5054664;28;20447;-84
2021/12/13 06:13:11;;;;;;;95.90;69.47;;;;;;;;;;5054240;28;20450;-83
2021/12/13 06:15:40;;;;;;;109.67;72.60;;;;;;;;;;5054260;28;20436;-83
2021/12/13 06:18:12;;;;;;;114.50;66.90;;;;;;;;;;5054363;28;20815;-84
2021/12/13 06:20:43;;;;;;;122.80;71.23;;;;;;;;;;5053947;28;21077;-83
2021/12/13 06:23:12;;;;;;;110.93;69.60;;;;;;;;;;5054162;28;20438;-82
2021/12/13 06:25:42;;;;;;;102.37;68.50;;;;;;;;;;5047358;28;20413;-83
2021/12/13 06:28:17;;;;;;;100.57;66.90;;;;;;;;;;5033795;28;20414;-83
2021/12/13 06:30:51;;;;;;;122.27;70.33;;;;;;;;;;5034190;28;20435;-83
2021/12/13 06:33:19;;;;;;;114.60;70.50;;;;;;;;;;5034129;28;20926;-83
2021/12/13 06:35:47;;;;;;;128.97;74.07;;;;;;;;;;5034230;28;20822;-84
2021/12/13 06:38:26;;;;;;;105.57;72.17;;;;;;;;;;5034269;28;20421;-83
2021/12/13 06:40:55;;;;;;;97.63;65.33;;;;;;;;;;5033873;28;20413;-84
2021/12/13 06:43:28;;;;;;;104.70;69.10;;;;;;;;;;5034057;28;20890;-84
2021/12/13 06:45:55;;;;;;;100.53;70.80;;;;;;;;;;5033698;28;20928;-83
2021/12/13 06:48:33;;;;;;;117.53;68.83;;;;;;;;;;5033715;28;20433;-84
2021/12/13 06:51:01;;;;;;;142.27;77.50;;;;;;;;;;5033982;28;20435;-84
2021/12/13 06:53:28;;;;;;;87.47;62.93;;;;;;;;;;5033491;28;20499;-84
2021/12/13 06:55:57;;;;;;;108.40;69.07;;;;;;;;;;5033904;28;20860;-84
2021/12/13 06:58:28;;;;;;;103.07;65.70;;;;;;;;;;5033603;28;20413;-84
2021/12/13 07:00:56;;;;;;;100.07;63.50;;;;;;;;;;5033775;28;20504;-84
2021/12/13 07:03:26;;;;;;;104.40;67.07;;;;;;;;;;5033570;28;20413;-83
2021/12/13 07:05:55;;;;;;;112.97;68.67;;;;;;;;;;5033773;28;20424;-84
2021/12/13 07:08:24;;;;;;;109.80;69.60;;;;;;;;;;5033731;28;20538;-84
2021/12/13 07:11:01;;;;;;;116.63;69.40;;;;;;;;;;5033508;28;20437;-83
2021/12/13 07:13:31;;;;;;;102.77;66.37;;;;;;;;;;5033325;28;20406;-84
2021/12/13 07:16:00;;;;;;;129.23;67.30;;;;;;;;;;5033632;28;20432;-84
2021/12/13 07:18:30;;;;;;;103.87;65.33;;;;;;;;;;5033360;28;20471;-84
2021/12/13 07:21:04;;;;;;;121.97;64.67;;;;;;;;;;5033412;28;20799;-84
2021/12/13 07:23:51;;;;;;;102.90;64.83;;;;;;;;;;5032466;28;20443;-84
2021/12/13 07:26:30;;;;;;;122.70;70.53;;;;;;;;;;5033167;28;20429;-83
2021/12/13 07:28:59;;;;;;;105.03;60.27;;;;;;;;;;5033035;28;20431;-83
2021/12/13 07:31:26;;;;;;;120.30;65.83;;;;;;;;;;5015894;28;20443;-84
2021/12/13 07:33:54;;;;;;;113.00;62.40;;;;;;;;;;5032995;28;20842;-83
2021/12/13 07:36:23;;;;;;;108.30;61.60;;;;;;;;;;5033194;28;20433;-83
2021/12/13 07:38:52;;;;;;;130.03;67.00;;;;;;;;;;5031866;28;20443;-83
2021/12/13 07:41:20;;;;;;;123.57;68.00;;;;;;;;;;5033087;28;20454;-84
2021/12/13 07:43:49;;;;;;;145.70;72.13;;;;;;;;;;5032673;28;20436;-86
2021/12/13 07:46:25;;;;;;;149.37;72.67;;;;;;;;;;5032987;28;20421;-84
2021/12/13 07:48:54;;;;;;;132.63;66.97;;;;;;;;;;5032376;28;20907;-83
2021/12/13 07:51:25;;;;;;;105.97;65.47;;;;;;;;;;5032677;28;20453;-83
2021/12/13 07:53:54;;;;;;;128.40;66.80;;;;;;;;;;5032297;28;20461;-83
2021/12/13 07:56:23;;;;;;;133.63;66.90;;;;;;;;;;5032566;28;20421;-83
2021/12/13 07:58:53;;;;;;;115.53;65.10;;;;;;;;;;5032269;28;20439;-83
2021/12/13 08:01:22;;;;;;;133.10;68.93;;;;;;;;;;5032703;28;20472;-83
2021/12/13 08:03:53;;;;;;;127.13;67.07;;;;;;;;;;5032196;28;20417;-83
2021/12/13 08:06:21;;;;;;;137.48;66.28;;;;;;;;;;5032116;28;20439;-84
2021/12/13 08:08:50;;;;;;;121.97;67.07;;;;;;;;;;5032259;28;20635;-83
2021/12/13 08:11:19;;;;;;;155.17;71.80;;;;;;;;;;5032425;28;20405;-84
2021/12/13 08:13:58;;;;;;;122.07;67.77;;;;;;;;;;5032419;28;20420;-84
2021/12/13 08:16:30;;;;;;;166.70;70.63;;;;;;;;;;5032480;28;20896;-84
2021/12/13 08:19:05;;;;;;;124.00;66.03;;;;;;;;;;5032008;28;20441;-84
2021/12/13 08:21:37;;;;;;;125.90;65.50;;;;;;;;;;5032145;28;20799;-83
2021/12/13 08:24:05;;;;;;;133.37;67.97;;;;;;;;;;5032224;28;20478;-84
2021/12/13 08:26:34;;;;;;;131.60;68.37;;;;;;;;;;5045594;28;20425;-83
2021/12/13 08:29:05;;;;;;;145.23;68.53;;;;;;;;;;5052305;28;20453;-83
2021/12/13 08:31:35;;;;;;;103.50;60.37;;;;;;;;;;5052196;28;20424;-82
2021/12/13 08:34:05;;;;;;;107.53;60.73;;;;;;;;;;5052197;28;20402;-83
2021/12/13 08:36:34;;;;;;;118.60;63.50;;;;;;;;;;5052127;28;20420;-84
2021/12/13 08:39:05;;;;;;;115.10;60.60;;;;;;;;;;5052020;28;20431;-84
2021/12/13 08:41:34;;;;;;;102.20;61.30;;;;;;;;;;5052086;28;20419;-82
2021/12/13 08:44:05;;;;;;;102.20;59.73;;;;;;;;;;5051866;28;20413;-84
2021/12/13 08:46:35;;;;;;;100.50;60.67;;;;;;;;;;5052259;28;20438;-85
2021/12/13 08:49:13;;;;;;;99.57;56.93;;;;;;;;;;5052129;28;20425;-84
2021/12/13 08:51:50;;;;;;;118.57;60.93;;;;;;;;;;5055202;28;20434;-84
2021/12/13 08:54:18;;;;;;;138.27;60.80;;;;;;;;;;5055757;28;20485;-83
2021/12/13 08:56:47;;;;;;;99.40;54.07;;;;;;;;;;5056220;28;20449;-83
2021/12/13 08:59:23;;;;;;;101.17;57.17;;;;;;;;;;5055613;28;20886;-83
2021/12/13 09:01:52;;;;;;;87.30;53.73;;;;;;;;;;5055830;28;20416;-82
2021/12/13 09:04:24;;;;;;;81.70;54.17;;;;;;;;;;5055685;28;20416;-82
2021/12/13 09:06:54;;;;;;;124.43;58.07;;;;;;;;;;5055735;28;20531;-87
2021/12/13 09:09:21;;;;;;;71.53;51.17;;;;;;;;;;5056313;28;20418;-83
2021/12/13 09:11:56;;;;;;;99.03;54.20;;;;;;;;;;5055640;28;20482;-84
2021/12/13 09:14:26;;;;;;;120.80;59.00;;;;;;;;;;5055556;28;20492;-85
2021/12/13 09:17:10;;;;;;;88.37;54.70;;;;;;;;;;5055677;28;20544;-83
2021/12/13 09:19:42;;;;;;;83.13;52.50;;;;;;;;;;5055165;28;20509;-82
2021/12/13 09:22:11;;;;;;;88.33;52.80;;;;;;;;;;5055161;28;20460;-82
2021/12/13 09:24:41;;;;;;;89.67;55.00;;;;;;;;;;5055029;28;20459;-82
2021/12/13 09:27:11;;;;;;;88.80;52.17;;;;;;;;;;5037635;28;20998;-81
2021/12/13 09:29:49;;;;;;;72.03;49.90;;;;;;;;;;5035333;28;20414;-81
2021/12/13 09:32:16;;;;;;;78.77;50.53;;;;;;;;;;5035112;28;20434;-81
2021/12/13 09:34:45;;;;;;;93.43;50.00;;;;;;;;;;5017892;28;20899;-83
2021/12/13 09:37:13;;;;;;;77.50;49.90;;;;;;;;;;5035265;28;20477;-83
2021/12/13 09:39:41;;;;;;;84.23;49.90;;;;;;;;;;5034857;28;20449;-82
2021/12/13 09:42:10;;;;;;;71.27;49.93;;;;;;;;;;5035252;28;20512;-81
2021/12/13 09:44:44;;;;;;;80.23;51.07;;;;;;;;;;5034599;28;20413;-81
2021/12/13 09:47:14;;;;;;;78.63;52.80;;;;;;;;;;5034853;28;20470;-83
2021/12/13 09:49:44;;;;;;;53.97;46.43;;;;;;;;;;5034749;28;20410;-83
2021/12/13 09:52:14;;;;;;;68.10;50.33;;;;;;;;;;5016832;28;20465;-82
2021/12/13 09:54:44;;;;;;;67.37;47.73;;;;;;;;;;5034810;28;20413;-81
2021/12/13 09:57:13;;;;;;;84.20;51.90;;;;;;;;;;5034895;28;20554;-80
2021/12/13 09:59:43;;;;;;;67.90;50.60;;;;;;;;;;5034840;28;20415;-82
2021/12/13 10:02:14;;;;;;;70.53;51.43;;;;;;;;;;5034092;28;20413;-83
2021/12/13 10:04:45;;;;;;;74.43;51.13;;;;;;;;;;5000960;28;20979;-82
2021/12/13 10:07:14;;;;;;;83.10;52.50;;;;;;;;;;5034326;28;20459;-82
2021/12/13 10:09:43;;;;;;;58.60;49.03;;;;;;;;;;5034722;28;20406;-81
2021/12/13 10:12:15;;;;;;;64.10;50.53;;;;;;;;;;5034225;28;20422;-81
2021/12/13 10:14:44;;;;;;;68.80;52.20;;;;;;;;;;5034090;28;20444;-83
2021/12/13 10:17:13;;;;;;;71.20;50.33;;;;;;;;;;5034130;28;20915;-83
2021/12/13 10:19:44;;;;;;;59.27;47.87;;;;;;;;;;5034349;28;20463;-80
2021/12/13 10:22:13;;;;;;;64.60;50.70;;;;;;;;;;5034338;28;20451;-81
2021/12/13 10:24:42;;;;;;;73.90;52.43;;;;;;;;;;5034361;28;20418;-81
2021/12/13 10:27:11;;;;;;;63.03;49.37;;;;;;;;;;5033659;28;20450;-82
2021/12/13 10:29:39;;;;;;;108.80;99.10;;;;;;;;;;5053995;28;20767;-82
2021/12/13 10:32:08;;;;;;;78.33;54.20;;;;;;;;;;5054357;28;20438;-81
2021/12/13 10:34:37;;;;;;;74.20;53.13;;;;;;;;;;5054243;28;20487;-81
2021/12/13 10:37:07;;;;;;;66.70;48.10;;;;;;;;;;5054161;28;20490;-81
2021/12/13 10:39:37;;;;;;;82.70;50.30;;;;;;;;;;5054074;28;20547;-83
2021/12/13 10:42:07;;;;;;;80.10;52.30;;;;;;;;;;5054042;28;20427;-82
2021/12/13 10:44:35;;;;;;;59.53;46.80;;;;;;;;;;5053885;28;20421;-82
2021/12/13 10:47:04;;;;;;;65.37;48.20;;;;;;;;;;5053887;28;20432;-81
2021/12/13 10:49:33;;;;;;;68.67;47.60;;;;;;;;;;5053545;28;20442;-81
2021/12/13 10:52:02;;;;;;;62.83;46.30;;;;;;;;;;5053580;28;20416;-82
2021/12/13 10:54:31;;;;;;;57.80;45.90;;;;;;;;;;5053537;28;20535;-81
2021/12/13 10:57:01;;;;;;;59.17;45.93;;;;;;;;;;5053373;28;20474;-82
2021/12/13 10:59:30;;;;;;;78.73;71.27;;;;;;;;;;5053498;28;20511;-81
2021/12/13 11:01:59;;;;;;;216.17;173.57;;;;;;;;;;5053166;28;20485;-82
2021/12/13 11:04:29;;;;;;;53.77;45.60;;;;;;;;;;5053606;28;20469;-81
2021/12/13 11:06:56;;;;;;;49.63;44.00;;;;;;;;;;5035448;28;20935;-82
2021/12/13 11:09:25;;;;;;;50.17;45.10;;;;;;;;;;5053583;28;20439;-82
2021/12/13 11:11:54;;;;;;;54.20;45.87;;;;;;;;;;5053702;28;20428;-81
2021/12/13 11:14:24;;;;;;;48.13;42.90;;;;;;;;;;5052058;28;20439;-81
2021/12/13 11:16:53;;;;;;;47.90;43.00;;;;;;;;;;5053261;28;20417;-81
2021/12/13 11:19:22;;;;;;;45.70;41.30;;;;;;;;;;5052862;28;20473;-83
2021/12/13 11:21:50;;;;;;;47.50;42.50;;;;;;;;;;5052771;28;20887;-83
2021/12/13 11:24:21;;;;;;;53.57;45.80;;;;;;;;;;5053093;28;20496;-81
2021/12/13 11:26:49;;;;;;;48.00;43.10;;;;;;;;;;5038464;28;20451;-81
2021/12/13 11:29:17;;;;;;;47.30;42.80;;;;;;;;;;5033077;28;20446;-81
2021/12/13 11:32:26;;;;;;;46.10;41.17;;;;;;;;;;5033201;28;20425;-83
2021/12/13 11:35:06;;;;;;;51.63;42.87;;;;;;;;;;5032691;28;20941;-82
2021/12/13 11:37:47;;;;;;;45.97;41.20;;;;;;;;;;5032855;28;20786;-81
2021/12/13 11:40:26;;;;;;;44.70;40.50;;;;;;;;;;5032868;28;20450;-81
2021/12/13 11:43:11;;;;;;;45.83;41.53;;;;;;;;;;5032912;28;20429;-83
2021/12/13 11:45:57;;;;;;;46.63;42.07;;;;;;;;;;5032747;28;20497;-82
2021/12/13 11:48:43;;;;;;;45.80;41.10;;;;;;;;;;5014898;28;20838;-82
2021/12/13 11:51:31;;;;;;;43.30;39.30;;;;;;;;;;5032297;28;20930;-80
2021/12/13 11:54:16;;;;;;;43.83;39.57;;;;;;;;;;5032178;28;20462;-81
2021/12/13 11:56:55;;;;;;;45.73;41.40;;;;;;;;;;5031955;28;20466;-84
2021/12/13 11:59:39;;;;;;;46.17;41.23;;;;;;;;;;5032799;28;20425;-85
2021/12/13 12:02:10;;;;;;;45.33;40.97;;;;;;;;;;5032534;28;20504;-83
2021/12/13 12:04:59;;;;;;;43.90;39.30;;;;;;;;;;5032417;28;20517;-83
2021/12/13 12:07:42;;;;;;;44.30;39.63;;;;;;;;;;5032590;28;20942;-83
2021/12/13 12:10:27;;;;;;;46.13;41.50;;;;;;;;;;5029860;28;20826;-84
2021/12/13 12:13:03;;;;;;;57.37;45.40;;;;;;;;;;5032850;28;20914;-84
2021/12/13 12:15:31;;;;;;;43.77;39.47;;;;;;;;;;5032339;28;20455;-84
2021/12/13 12:18:02;;;;;;;44.70;40.57;;;;;;;;;;5032526;28;20463;-85
2021/12/13 12:20:31;;;;;;;43.70;39.40;;;;;;;;;;5033098;28;20466;-84
2021/12/13 12:22:59;;;;;;;43.33;39.53;;;;;;;;;;5033086;28;20904;-88
2021/12/13 12:25:31;;;;;;;45.63;40.90;;;;;;;;;;5033576;28;20480;-84
2021/12/13 12:27:59;;;;;;;43.30;39.13;;;;;;;;;;5032362;28;20439;-81
2021/12/13 12:30:28;;;;;;;44.63;40.40;;;;;;;;;;5032021;28;20855;-83
2021/12/13 12:32:57;;;;;;;47.57;42.93;;;;;;;;;;5032549;28;20452;-82
2021/12/13 12:35:26;;;;;;;43.03;39.13;;;;;;;;;;5032666;28;20433;-82
2021/12/13 12:38:15;;;;;;;46.80;41.93;;;;;;;;;;5032709;28;20417;-83
2021/12/13 12:40:49;;;;;;;42.47;38.37;;;;;;;;;;5032457;28;20487;-80
2021/12/13 12:43:19;;;;;;;43.50;39.30;;;;;;;;;;5032532;28;20421;-81
2021/12/13 12:45:49;;;;;;;42.97;39.00;;;;;;;;;;5031933;28;20508;-81
2021/12/13 12:48:25;;;;;;;39.83;36.53;;;;;;;;;;5032383;28;20418;-81
2021/12/13 12:50:57;;;;;;;44.50;40.07;;;;;;;;;;5031931;28;20425;-81
2021/12/13 12:53:30;;;;;;;42.20;38.27;;;;;;;;;;5032085;28;20498;-81
2021/12/13 12:56:00;;;;;;;40.27;36.57;;;;;;;;;;5028852;28;20420;-81
2021/12/13 12:58:30;;;;;;;40.87;37.27;;;;;;;;;;5031740;28;20425;-81
2021/12/13 13:00:59;;;;;;;40.40;36.70;;;;;;;;;;5031934;28;20512;-79
2021/12/13 13:03:27;;;;;;;39.53;36.20;;;;;;;;;;5032974;28;20895;-81
2021/12/13 13:06:02;;;;;;;41.23;37.53;;;;;;;;;;5033073;28;20756;-81
2021/12/13 13:08:30;;;;;;;37.20;34.30;;;;;;;;;;5031972;28;20713;-81
2021/12/13 13:13:45;;;;;;;38.40;35.00;;;;;;;;;;5032157;28;20431;-81
2021/12/13 13:16:13;;;;;;;41.03;37.13;;;;;;;;;;5032504;28;20417;-80
2021/12/13 13:18:41;;;;;;;37.10;33.80;;;;;;;;;;5032990;28;20836;-79
2021/12/13 13:21:10;;;;;;;37.40;34.23;;;;;;;;;;5031912;28;20541;-86
2021/12/13 13:23:39;;;;;;;39.43;36.00;;;;;;;;;;5033860;28;20425;-81
2021/12/13 13:26:09;;;;;;;36.90;33.67;;;;;;;;;;5033612;28;20450;-81
2021/12/13 13:28:38;;;;;;;36.90;33.80;;;;;;;;;;5037409;28;20439;-81
2021/12/13 13:31:07;;;;;;;38.50;35.00;;;;;;;;;;5038044;28;20444;-81
2021/12/13 13:33:37;;;;;;;36.13;32.90;;;;;;;;;;5038471;28;20466;-82
2021/12/13 13:36:06;;;;;;;39.03;35.90;;;;;;;;;;5039703;28;20450;-80
2021/12/13 13:38:35;;;;;;;40.07;36.60;;;;;;;;;;5041458;28;20251;-81
2021/12/13 13:41:03;;;;;;;35.53;32.60;;;;;;;;;;5042072;28;20973;-82
2021/12/13 13:43:33;;;;;;;36.43;33.33;;;;;;;;;;5041201;28;20463;-81
2021/12/13 13:46:01;;;;;;;37.70;33.90;;;;;;;;;;5041765;28;20421;-83
2021/12/13 13:48:30;;;;;;;36.37;32.97;;;;;;;;;;5044848;28;20445;-82
2021/12/13 13:50:58;;;;;;;36.20;33.13;;;;;;;;;;5059507;28;20425;-83
2021/12/13 13:53:27;;;;;;;34.57;31.77;;;;;;;;;;5061159;28;20451;-83
2021/12/13 13:55:56;;;;;;;36.90;33.57;;;;;;;;;;5062232;28;21089;-82
2021/12/13 13:58:25;;;;;;;37.03;33.70;;;;;;;;;;5061139;28;20410;-82
2021/12/13 14:00:56;;;;;;;38.87;35.17;;;;;;;;;;5059071;28;20436;-83
2021/12/13 14:03:27;;;;;;;35.03;32.13;;;;;;;;;;5059615;28;20481;-82
2021/12/13 14:05:58;;;;;;;33.40;30.13;;;;;;;;;;5044743;28;20493;-83
2021/12/13 14:08:26;;;;;;;35.73;32.30;;;;;;;;;;5060745;28;20434;-84
2021/12/13 14:10:55;;;;;;;34.20;31.27;;;;;;;;;;5062783;28;20466;-83
2021/12/13 14:13:23;;;;;;;34.83;31.47;;;;;;;;;;5060257;28;20918;-83
2021/12/13 14:15:51;;;;;;;33.30;30.50;;;;;;;;;;5059511;28;20434;-82
2021/12/13 14:18:22;;;;;;;32.47;29.67;;;;;;;;;;5059363;28;20958;-83
2021/12/13 14:20:50;;;;;;;33.33;30.27;;;;;;;;;;5060025;28;20442;-83
2021/12/13 14:23:21;;;;;;;31.97;29.27;;;;;;;;;;5060674;28;20505;-83
2021/12/13 14:25:52;;;;;;;30.83;28.43;;;;;;;;;;5055838;28;20760;-82
2021/12/13 14:28:24;;;;;;;32.47;29.97;;;;;;;;;;5043320;28;20414;-83
2021/12/13 14:30:53;;;;;;;32.03;29.57;;;;;;;;;;5041500;28;20903;-83
2021/12/13 14:33:24;;;;;;;31.10;28.50;;;;;;;;;;5038777;28;20446;-81
2021/12/13 14:36:02;;;;;;;32.10;29.03;;;;;;;;;;5038378;28;20924;-81
2021/12/13 14:38:30;;;;;;;30.07;27.67;;;;;;;;;;5037206;28;20914;-82